sensor_id;sensor_type;location;lat;lon;timestamp;temperature;humidity
26541;DHT22;14206;50.202;10.948;2023-12-20T00:02:14;5.80;96.60
26541;DHT22;14206;50.202;10.948;2023-12-20T00:04:41;5.80;96.60
26541;DHT22;14206;50.202;10.948;2023-12-20T00:07:08;5.80;96.60
26541;DHT22;14206;50.202;10.948;2023-12-20T00:09:35;5.80;96.60
26541;DHT22;14206;50.202;10.948;2023-12-20T00:12:03;5.80;96.60
26541;DHT22;14206;50.202;10.948;2023-12-20T00:14:29;5.80;96.60
26541;DHT22;14206;50.202;10.948;2023-12-20T00:16:56;5.80;96.60
26541;DHT22;14206;50.202;10.948;2023-12-20T00:19:23;5.80;96.60
26541;DHT22;14206;50.202;10.948;2023-12-20T00:21:50;5.80;96.60
26541;DHT22;14206;50.202;10.948;2023-12-20T00:24:17;5.80;96.60
26541;DHT22;14206;50.202;10.948;2023-12-20T00:26:44;5.80;96.60
26541;DHT22;14206;50.202;10.948;2023-12-20T00:29:11;5.80;96.60
26541;DHT22;14206;50.202;10.948;2023-12-20T00:31:38;5.80;96.60
26541;DHT22;14206;50.202;10.948;2023-12-20T00:34:07;5.80;96.60
26541;DHT22;14206;50.202;10.948;2023-12-20T00:36:37;5.80;96.60
26541;DHT22;14206;50.202;10.948;2023-12-20T00:39:04;5.80;96.60
26541;DHT22;14206;50.202;10.948;2023-12-20T00:41:31;5.80;96.60
26541;DHT22;14206;50.202;10.948;2023-12-20T00:43:58;5.80;96.60
26541;DHT22;14206;50.202;10.948;2023-12-20T00:46:25;5.80;96.60
26541;DHT22;14206;50.202;10.948;2023-12-20T00:48:52;5.80;96.60
26541;DHT22;14206;50.202;10.948;2023-12-20T00:51:19;5.70;96.60
26541;DHT22;14206;50.202;10.948;2023-12-20T00:53:46;5.70;96.60
26541;DHT22;14206;50.202;10.948;2023-12-20T00:56:16;5.70;96.60
26541;DHT22;14206;50.202;10.948;2023-12-20T00:58:43;5.70;96.60
26541;DHT22;14206;50.202;10.948;2023-12-20T01:01:10;5.70;96.60
26541;DHT22;14206;50.202;10.948;2023-12-20T01:03:37;5.70;96.60
26541;DHT22;14206;50.202;10.948;2023-12-20T01:06:04;5.70;96.60
26541;DHT22;14206;50.202;10.948;2023-12-20T01:08:32;5.70;96.60
26541;DHT22;14206;50.202;10.948;2023-12-20T01:10:58;5.70;96.60
26541;DHT22;14206;50.202;10.948;2023-12-20T01:13:25;5.80;96.60
26541;DHT22;14206;50.202;10.948;2023-12-20T01:15:52;5.80;96.60
26541;DHT22;14206;50.202;10.948;2023-12-20T01:18:19;5.80;96.60
26541;DHT22;14206;50.202;10.948;2023-12-20T01:20:46;5.80;96.60
26541;DHT22;14206;50.202;10.948;2023-12-20T01:23:13;5.80;96.60
26541;DHT22;14206;50.202;10.948;2023-12-20T01:25:39;5.80;96.60
26541;DHT22;14206;50.202;10.948;2023-12-20T01:28:06;5.80;96.60
26541;DHT22;14206;50.202;10.948;2023-12-20T01:30:33;5.80;96.60
26541;DHT22;14206;50.202;10.948;2023-12-20T01:33:01;5.70;96.60
26541;DHT22;14206;50.202;10.948;2023-12-20T01:35:28;5.80;96.60
26541;DHT22;14206;50.202;10.948;2023-12-20T01:37:55;5.80;96.60
26541;DHT22;14206;50.202;10.948;2023-12-20T01:40:38;5.80;96.60
26541;DHT22;14206;50.202;10.948;2023-12-20T01:43:08;5.80;96.60
26541;DHT22;14206;50.202;10.948;2023-12-20T01:45:35;5.80;96.60
26541;DHT22;14206;50.202;10.948;2023-12-20T01:48:05;5.80;96.60
26541;DHT22;14206;50.202;10.948;2023-12-20T01:50:33;5.80;96.60
26541;DHT22;14206;50.202;10.948;2023-12-20T01:53:02;5.80;96.60
26541;DHT22;14206;50.202;10.948;2023-12-20T01:55:32;5.80;96.60
26541;DHT22;14206;50.202;10.948;2023-12-20T01:58:01;5.80;96.60
26541;DHT22;14206;50.202;10.948;2023-12-20T02:00:29;5.80;96.60
26541;DHT22;14206;50.202;10.948;2023-12-20T02:03:00;5.80;96.60
26541;DHT22;14206;50.202;10.948;2023-12-20T02:05:30;5.80;96.60
26541;DHT22;14206;50.202;10.948;2023-12-20T02:07:57;5.80;96.60
26541;DHT22;14206;50.202;10.948;2023-12-20T02:10:24;5.80;96.60
26541;DHT22;14206;50.202;10.948;2023-12-20T02:12:51;5.80;96.60
26541;DHT22;14206;50.202;10.948;2023-12-20T02:15:18;5.80;96.60
26541;DHT22;14206;50.202;10.948;2023-12-20T02:17:47;5.80;96.60
26541;DHT22;14206;50.202;10.948;2023-12-20T02:20:15;5.80;96.60
26541;DHT22;14206;50.202;10.948;2023-12-20T02:22:42;5.80;96.60
26541;DHT22;14206;50.202;10.948;2023-12-20T02:25:09;5.80;96.60
26541;DHT22;14206;50.202;10.948;2023-12-20T02:27:36;5.80;96.60
26541;DHT22;14206;50.202;10.948;2023-12-20T02:30:03;5.90;96.60
26541;DHT22;14206;50.202;10.948;2023-12-20T02:32:30;5.90;96.60
26541;DHT22;14206;50.202;10.948;2023-12-20T02:34:57;6.00;96.60
26541;DHT22;14206;50.202;10.948;2023-12-20T02:37:25;5.90;96.60
26541;DHT22;14206;50.202;10.948;2023-12-20T02:39:52;5.90;96.60
26541;DHT22;14206;50.202;10.948;2023-12-20T02:42:19;5.90;96.60
26541;DHT22;14206;50.202;10.948;2023-12-20T02:44:45;5.90;96.60
26541;DHT22;14206;50.202;10.948;2023-12-20T02:47:12;5.90;96.60
26541;DHT22;14206;50.202;10.948;2023-12-20T02:49:39;5.90;96.60
26541;DHT22;14206;50.202;10.948;2023-12-20T02:52:06;5.90;96.60
26541;DHT22;14206;50.202;10.948;2023-12-20T02:54:33;5.90;96.60
26541;DHT22;14206;50.202;10.948;2023-12-20T02:57:00;5.90;96.60
26541;DHT22;14206;50.202;10.948;2023-12-20T02:59:27;5.80;96.60
26541;DHT22;14206;50.202;10.948;2023-12-20T03:01:54;5.80;96.60
26541;DHT22;14206;50.202;10.948;2023-12-20T03:04:21;5.90;96.60
26541;DHT22;14206;50.202;10.948;2023-12-20T03:06:48;5.90;96.60
26541;DHT22;14206;50.202;10.948;2023-12-20T03:09:15;5.90;96.60
26541;DHT22;14206;50.202;10.948;2023-12-20T03:11:41;5.80;96.60
26541;DHT22;14206;50.202;10.948;2023-12-20T03:14:08;5.80;96.60
26541;DHT22;14206;50.202;10.948;2023-12-20T03:16:35;5.80;96.60
26541;DHT22;14206;50.202;10.948;2023-12-20T03:19:02;5.80;96.60
26541;DHT22;14206;50.202;10.948;2023-12-20T03:21:29;5.70;96.60
26541;DHT22;14206;50.202;10.948;2023-12-20T03:23:56;5.70;96.60
26541;DHT22;14206;50.202;10.948;2023-12-20T03:26:23;5.70;96.60
26541;DHT22;14206;50.202;10.948;2023-12-20T03:28:50;5.70;96.60
26541;DHT22;14206;50.202;10.948;2023-12-20T03:31:17;5.70;96.60
26541;DHT22;14206;50.202;10.948;2023-12-20T03:33:44;5.70;96.60
26541;DHT22;14206;50.202;10.948;2023-12-20T03:36:11;5.70;96.60
26541;DHT22;14206;50.202;10.948;2023-12-20T03:38:37;5.70;96.60
26541;DHT22;14206;50.202;10.948;2023-12-20T03:41:04;5.70;96.60
26541;DHT22;14206;50.202;10.948;2023-12-20T03:43:31;5.60;96.60
26541;DHT22;14206;50.202;10.948;2023-12-20T03:45:58;5.60;96.60
26541;DHT22;14206;50.202;10.948;2023-12-20T03:48:26;5.60;96.60
26541;DHT22;14206;50.202;10.948;2023-12-20T03:50:53;5.70;96.60
26541;DHT22;14206;50.202;10.948;2023-12-20T03:53:20;5.60;96.60
26541;DHT22;14206;50.202;10.948;2023-12-20T03:55:47;5.60;96.60
26541;DHT22;14206;50.202;10.948;2023-12-20T03:58:13;5.60;96.60
26541;DHT22;14206;50.202;10.948;2023-12-20T04:00:40;5.60;96.60
26541;DHT22;14206;50.202;10.948;2023-12-20T04:03:07;5.70;96.60
26541;DHT22;14206;50.202;10.948;2023-12-20T04:05:34;5.70;96.60
26541;DHT22;14206;50.202;10.948;2023-12-20T04:08:01;5.70;96.60
26541;DHT22;14206;50.202;10.948;2023-12-20T04:10:29;5.70;96.60
26541;DHT22;14206;50.202;10.948;2023-12-20T04:12:55;5.70;96.60
26541;DHT22;14206;50.202;10.948;2023-12-20T04:15:23;5.70;96.60
26541;DHT22;14206;50.202;10.948;2023-12-20T04:17:49;5.80;96.60
26541;DHT22;14206;50.202;10.948;2023-12-20T04:20:17;5.80;96.60
26541;DHT22;14206;50.202;10.948;2023-12-20T04:22:43;5.80;96.60
26541;DHT22;14206;50.202;10.948;2023-12-20T04:25:10;5.80;96.60
26541;DHT22;14206;50.202;10.948;2023-12-20T04:27:38;5.80;96.60
26541;DHT22;14206;50.202;10.948;2023-12-20T04:30:05;5.80;96.60
26541;DHT22;14206;50.202;10.948;2023-12-20T04:32:32;5.80;96.60
26541;DHT22;14206;50.202;10.948;2023-12-20T04:34:59;5.80;96.60
26541;DHT22;14206;50.202;10.948;2023-12-20T04:37:26;5.80;96.60
26541;DHT22;14206;50.202;10.948;2023-12-20T04:39:53;5.70;96.60
26541;DHT22;14206;50.202;10.948;2023-12-20T04:42:20;5.80;96.60
26541;DHT22;14206;50.202;10.948;2023-12-20T04:44:47;5.80;96.60
26541;DHT22;14206;50.202;10.948;2023-12-20T04:47:13;5.80;96.60
26541;DHT22;14206;50.202;10.948;2023-12-20T04:49:40;5.70;96.60
26541;DHT22;14206;50.202;10.948;2023-12-20T04:52:07;5.70;96.60
26541;DHT22;14206;50.202;10.948;2023-12-20T04:54:34;5.70;96.60
26541;DHT22;14206;50.202;10.948;2023-12-20T04:57:01;5.70;96.60
26541;DHT22;14206;50.202;10.948;2023-12-20T04:59:28;5.70;96.60
26541;DHT22;14206;50.202;10.948;2023-12-20T05:01:55;5.70;96.60
26541;DHT22;14206;50.202;10.948;2023-12-20T05:04:22;5.70;96.60
26541;DHT22;14206;50.202;10.948;2023-12-20T05:06:49;5.70;96.60
26541;DHT22;14206;50.202;10.948;2023-12-20T05:09:17;5.80;96.60
26541;DHT22;14206;50.202;10.948;2023-12-20T05:11:44;5.80;96.60
26541;DHT22;14206;50.202;10.948;2023-12-20T05:14:11;5.80;96.60
26541;DHT22;14206;50.202;10.948;2023-12-20T05:16:38;5.80;96.60
26541;DHT22;14206;50.202;10.948;2023-12-20T05:19:05;5.80;96.60
26541;DHT22;14206;50.202;10.948;2023-12-20T05:21:33;5.80;96.60
26541;DHT22;14206;50.202;10.948;2023-12-20T05:24:00;5.80;96.60
26541;DHT22;14206;50.202;10.948;2023-12-20T05:26:27;5.80;96.60
26541;DHT22;14206;50.202;10.948;2023-12-20T05:28:56;5.80;96.60
26541;DHT22;14206;50.202;10.948;2023-12-20T05:31:23;5.80;96.60
26541;DHT22;14206;50.202;10.948;2023-12-20T05:33:50;5.80;96.60
26541;DHT22;14206;50.202;10.948;2023-12-20T05:36:17;5.80;96.60
26541;DHT22;14206;50.202;10.948;2023-12-20T05:41:42;5.90;96.60
26541;DHT22;14206;50.202;10.948;2023-12-20T05:44:09;5.90;96.60
26541;DHT22;14206;50.202;10.948;2023-12-20T05:46:37;5.90;96.60
26541;DHT22;14206;50.202;10.948;2023-12-20T05:49:04;5.90;96.60
26541;DHT22;14206;50.202;10.948;2023-12-20T05:51:31;6.00;96.60
26541;DHT22;14206;50.202;10.948;2023-12-20T05:53:58;6.00;96.60
26541;DHT22;14206;50.202;10.948;2023-12-20T05:56:26;6.00;96.60
26541;DHT22;14206;50.202;10.948;2023-12-20T05:58:52;6.00;96.60
26541;DHT22;14206;50.202;10.948;2023-12-20T06:01:19;6.00;96.60
26541;DHT22;14206;50.202;10.948;2023-12-20T06:03:46;5.90;96.60
26541;DHT22;14206;50.202;10.948;2023-12-20T06:06:14;5.90;96.60
26541;DHT22;14206;50.202;10.948;2023-12-20T06:08:43;5.90;96.60
26541;DHT22;14206;50.202;10.948;2023-12-20T06:11:11;5.90;96.60
26541;DHT22;14206;50.202;10.948;2023-12-20T06:13:38;5.80;96.60
26541;DHT22;14206;50.202;10.948;2023-12-20T06:16:05;5.90;96.60
26541;DHT22;14206;50.202;10.948;2023-12-20T06:18:34;5.80;96.60
26541;DHT22;14206;50.202;10.948;2023-12-20T06:21:00;5.90;96.60
26541;DHT22;14206;50.202;10.948;2023-12-20T06:23:29;5.90;96.60
26541;DHT22;14206;50.202;10.948;2023-12-20T06:25:55;5.80;96.60
26541;DHT22;14206;50.202;10.948;2023-12-20T06:28:22;5.80;96.60
26541;DHT22;14206;50.202;10.948;2023-12-20T06:30:49;5.80;96.60
26541;DHT22;14206;50.202;10.948;2023-12-20T06:33:18;5.80;96.60
26541;DHT22;14206;50.202;10.948;2023-12-20T06:35:46;5.80;96.60
26541;DHT22;14206;50.202;10.948;2023-12-20T06:38:13;5.80;96.60
26541;DHT22;14206;50.202;10.948;2023-12-20T06:40:40;5.80;96.60
26541;DHT22;14206;50.202;10.948;2023-12-20T06:43:07;5.80;96.60
26541;DHT22;14206;50.202;10.948;2023-12-20T06:45:46;5.80;96.60
26541;DHT22;14206;50.202;10.948;2023-12-20T06:48:13;5.80;96.60
26541;DHT22;14206;50.202;10.948;2023-12-20T06:50:40;5.80;96.60
26541;DHT22;14206;50.202;10.948;2023-12-20T06:53:07;5.90;96.60
26541;DHT22;14206;50.202;10.948;2023-12-20T06:55:38;5.90;96.60
26541;DHT22;14206;50.202;10.948;2023-12-20T06:58:04;5.90;96.60
26541;DHT22;14206;50.202;10.948;2023-12-20T07:00:32;5.90;96.60
26541;DHT22;14206;50.202;10.948;2023-12-20T07:03:00;5.80;96.60
26541;DHT22;14206;50.202;10.948;2023-12-20T07:05:27;5.80;96.60
26541;DHT22;14206;50.202;10.948;2023-12-20T07:07:54;5.70;96.60
26541;DHT22;14206;50.202;10.948;2023-12-20T07:10:21;5.60;96.60
26541;DHT22;14206;50.202;10.948;2023-12-20T07:12:48;5.60;96.60
26541;DHT22;14206;50.202;10.948;2023-12-20T07:15:15;5.60;96.60
26541;DHT22;14206;50.202;10.948;2023-12-20T07:17:43;5.60;96.60
26541;DHT22;14206;50.202;10.948;2023-12-20T07:20:11;5.60;96.60
26541;DHT22;14206;50.202;10.948;2023-12-20T07:22:38;5.70;96.60
26541;DHT22;14206;50.202;10.948;2023-12-20T07:25:07;5.70;96.60
26541;DHT22;14206;50.202;10.948;2023-12-20T07:27:34;5.70;96.60
26541;DHT22;14206;50.202;10.948;2023-12-20T07:30:04;5.70;96.60
26541;DHT22;14206;50.202;10.948;2023-12-20T07:32:31;5.70;96.60
26541;DHT22;14206;50.202;10.948;2023-12-20T07:34:58;5.70;96.60
26541;DHT22;14206;50.202;10.948;2023-12-20T07:37:26;5.70;96.60
26541;DHT22;14206;50.202;10.948;2023-12-20T07:39:53;5.60;96.60
26541;DHT22;14206;50.202;10.948;2023-12-20T07:42:20;5.60;96.60
26541;DHT22;14206;50.202;10.948;2023-12-20T07:44:48;5.50;96.60
26541;DHT22;14206;50.202;10.948;2023-12-20T07:47:15;5.40;96.60
26541;DHT22;14206;50.202;10.948;2023-12-20T07:49:45;5.40;96.60
26541;DHT22;14206;50.202;10.948;2023-12-20T07:52:12;5.40;96.60
26541;DHT22;14206;50.202;10.948;2023-12-20T07:54:40;5.40;96.60
26541;DHT22;14206;50.202;10.948;2023-12-20T07:57:07;5.40;96.60
26541;DHT22;14206;50.202;10.948;2023-12-20T07:59:34;5.40;96.60
26541;DHT22;14206;50.202;10.948;2023-12-20T08:02:00;5.40;96.60
26541;DHT22;14206;50.202;10.948;2023-12-20T08:04:28;5.40;96.60
26541;DHT22;14206;50.202;10.948;2023-12-20T08:06:55;5.40;96.60
26541;DHT22;14206;50.202;10.948;2023-12-20T08:09:22;5.40;96.60
26541;DHT22;14206;50.202;10.948;2023-12-20T08:11:49;5.50;96.60
26541;DHT22;14206;50.202;10.948;2023-12-20T08:14:16;5.50;96.60
26541;DHT22;14206;50.202;10.948;2023-12-20T08:16:43;5.50;96.60
26541;DHT22;14206;50.202;10.948;2023-12-20T08:19:09;5.50;96.60
26541;DHT22;14206;50.202;10.948;2023-12-20T08:21:36;5.50;96.60
26541;DHT22;14206;50.202;10.948;2023-12-20T08:24:05;5.60;96.60
26541;DHT22;14206;50.202;10.948;2023-12-20T08:26:32;5.70;96.60
26541;DHT22;14206;50.202;10.948;2023-12-20T08:29:00;5.80;96.60
26541;DHT22;14206;50.202;10.948;2023-12-20T08:31:28;6.00;96.60
26541;DHT22;14206;50.202;10.948;2023-12-20T08:33:56;6.10;96.60
26541;DHT22;14206;50.202;10.948;2023-12-20T08:36:23;6.30;96.60
26541;DHT22;14206;50.202;10.948;2023-12-20T08:38:51;6.50;96.60
26541;DHT22;14206;50.202;10.948;2023-12-20T08:41:18;6.70;96.60
26541;DHT22;14206;50.202;10.948;2023-12-20T08:43:45;7.00;96.60
26541;DHT22;14206;50.202;10.948;2023-12-20T08:46:13;7.20;96.60
26541;DHT22;14206;50.202;10.948;2023-12-20T08:48:40;7.30;96.60
26541;DHT22;14206;50.202;10.948;2023-12-20T08:51:07;7.30;96.60
26541;DHT22;14206;50.202;10.948;2023-12-20T08:53:35;7.30;96.60
26541;DHT22;14206;50.202;10.948;2023-12-20T08:56:02;7.40;96.60
26541;DHT22;14206;50.202;10.948;2023-12-20T08:58:29;7.50;96.60
26541;DHT22;14206;50.202;10.948;2023-12-20T09:00:57;7.50;96.60
26541;DHT22;14206;50.202;10.948;2023-12-20T09:03:25;7.40;96.60
26541;DHT22;14206;50.202;10.948;2023-12-20T09:05:52;7.30;96.60
26541;DHT22;14206;50.202;10.948;2023-12-20T09:08:18;7.20;96.60
26541;DHT22;14206;50.202;10.948;2023-12-20T09:10:45;7.10;96.60
26541;DHT22;14206;50.202;10.948;2023-12-20T09:13:13;7.00;96.60
26541;DHT22;14206;50.202;10.948;2023-12-20T09:15:40;7.00;96.60
26541;DHT22;14206;50.202;10.948;2023-12-20T09:18:07;6.90;96.60
26541;DHT22;14206;50.202;10.948;2023-12-20T09:20:34;6.90;96.60
26541;DHT22;14206;50.202;10.948;2023-12-20T09:23:02;6.90;96.60
26541;DHT22;14206;50.202;10.948;2023-12-20T09:25:29;7.00;96.60
26541;DHT22;14206;50.202;10.948;2023-12-20T09:27:57;7.00;96.60
26541;DHT22;14206;50.202;10.948;2023-12-20T09:30:24;7.00;96.60
26541;DHT22;14206;50.202;10.948;2023-12-20T09:32:55;7.00;96.60
26541;DHT22;14206;50.202;10.948;2023-12-20T09:35:22;7.00;96.60
26541;DHT22;14206;50.202;10.948;2023-12-20T09:37:49;7.00;96.60
26541;DHT22;14206;50.202;10.948;2023-12-20T09:40:19;6.90;96.60
26541;DHT22;14206;50.202;10.948;2023-12-20T09:45:46;6.90;96.60
26541;DHT22;14206;50.202;10.948;2023-12-20T09:48:17;6.90;96.60
26541;DHT22;14206;50.202;10.948;2023-12-20T09:50:45;6.80;96.60
26541;DHT22;14206;50.202;10.948;2023-12-20T09:53:19;6.80;96.60
26541;DHT22;14206;50.202;10.948;2023-12-20T09:55:47;6.80;96.60
26541;DHT22;14206;50.202;10.948;2023-12-20T09:58:14;6.90;96.60
26541;DHT22;14206;50.202;10.948;2023-12-20T10:00:41;6.90;96.60
26541;DHT22;14206;50.202;10.948;2023-12-20T10:03:11;7.00;96.60
26541;DHT22;14206;50.202;10.948;2023-12-20T10:05:43;6.90;96.60
26541;DHT22;14206;50.202;10.948;2023-12-20T10:08:11;6.90;96.60
26541;DHT22;14206;50.202;10.948;2023-12-20T10:10:38;7.00;96.60
26541;DHT22;14206;50.202;10.948;2023-12-20T10:13:14;7.00;96.60
26541;DHT22;14206;50.202;10.948;2023-12-20T10:15:41;6.90;96.60
26541;DHT22;14206;50.202;10.948;2023-12-20T10:18:11;6.90;96.60
26541;DHT22;14206;50.202;10.948;2023-12-20T10:20:40;7.00;96.60
26541;DHT22;14206;50.202;10.948;2023-12-20T10:23:07;6.90;96.60
26541;DHT22;14206;50.202;10.948;2023-12-20T10:25:35;6.80;96.60
26541;DHT22;14206;50.202;10.948;2023-12-20T10:28:09;6.80;96.60
26541;DHT22;14206;50.202;10.948;2023-12-20T10:30:37;6.80;96.60
26541;DHT22;14206;50.202;10.948;2023-12-20T10:33:08;6.80;96.60
26541;DHT22;14206;50.202;10.948;2023-12-20T10:35:38;6.90;96.60
26541;DHT22;14206;50.202;10.948;2023-12-20T10:38:10;6.90;96.60
26541;DHT22;14206;50.202;10.948;2023-12-20T10:40:38;7.00;96.60
26541;DHT22;14206;50.202;10.948;2023-12-20T10:43:07;7.00;96.60
26541;DHT22;14206;50.202;10.948;2023-12-20T10:45:35;7.00;96.60
26541;DHT22;14206;50.202;10.948;2023-12-20T10:48:03;7.10;96.50
26541;DHT22;14206;50.202;10.948;2023-12-20T10:50:31;7.00;96.60
26541;DHT22;14206;50.202;10.948;2023-12-20T10:52:58;7.00;96.40
26541;DHT22;14206;50.202;10.948;2023-12-20T10:55:27;7.00;96.60
26541;DHT22;14206;50.202;10.948;2023-12-20T10:58:00;7.00;96.60
26541;DHT22;14206;50.202;10.948;2023-12-20T11:00:29;7.00;96.60
26541;DHT22;14206;50.202;10.948;2023-12-20T11:03:00;6.90;96.60
26541;DHT22;14206;50.202;10.948;2023-12-20T11:08:26;7.00;96.60
26541;DHT22;14206;50.202;10.948;2023-12-20T11:11:05;7.00;96.60
26541;DHT22;14206;50.202;10.948;2023-12-20T11:13:37;7.00;96.60
26541;DHT22;14206;50.202;10.948;2023-12-20T11:16:04;7.00;96.60
26541;DHT22;14206;50.202;10.948;2023-12-20T11:18:32;7.10;96.60
26541;DHT22;14206;50.202;10.948;2023-12-20T11:21:05;7.10;96.60
26541;DHT22;14206;50.202;10.948;2023-12-20T11:23:33;7.00;96.60
26541;DHT22;14206;50.202;10.948;2023-12-20T11:26:02;7.00;96.60
26541;DHT22;14206;50.202;10.948;2023-12-20T11:28:29;7.10;96.60
26541;DHT22;14206;50.202;10.948;2023-12-20T11:30:58;7.10;96.60
26541;DHT22;14206;50.202;10.948;2023-12-20T11:33:32;7.20;96.60
26541;DHT22;14206;50.202;10.948;2023-12-20T11:36:15;7.30;96.60
26541;DHT22;14206;50.202;10.948;2023-12-20T11:38:56;7.50;96.60
26541;DHT22;14206;50.202;10.948;2023-12-20T11:41:27;7.80;96.60
26541;DHT22;14206;50.202;10.948;2023-12-20T11:43:54;7.90;96.60
26541;DHT22;14206;50.202;10.948;2023-12-20T11:46:22;7.90;94.70
26541;DHT22;14206;50.202;10.948;2023-12-20T11:48:49;7.90;94.50
26541;DHT22;14206;50.202;10.948;2023-12-20T11:51:17;7.80;95.30
26541;DHT22;14206;50.202;10.948;2023-12-20T11:53:44;7.60;95.60
26541;DHT22;14206;50.202;10.948;2023-12-20T11:56:11;7.50;96.60
26541;DHT22;14206;50.202;10.948;2023-12-20T11:58:39;7.30;96.60
26541;DHT22;14206;50.202;10.948;2023-12-20T12:01:06;7.20;96.60
26541;DHT22;14206;50.202;10.948;2023-12-20T12:03:35;7.10;96.60
26541;DHT22;14206;50.202;10.948;2023-12-20T12:06:02;7.10;96.60
26541;DHT22;14206;50.202;10.948;2023-12-20T12:08:32;7.00;96.60
26541;DHT22;14206;50.202;10.948;2023-12-20T12:10:59;7.00;96.60
26541;DHT22;14206;50.202;10.948;2023-12-20T12:13:26;7.00;96.60
26541;DHT22;14206;50.202;10.948;2023-12-20T12:15:54;7.00;96.60
26541;DHT22;14206;50.202;10.948;2023-12-20T12:18:22;7.00;96.60
26541;DHT22;14206;50.202;10.948;2023-12-20T12:20:49;7.10;96.60
26541;DHT22;14206;50.202;10.948;2023-12-20T12:23:23;7.00;96.60
26541;DHT22;14206;50.202;10.948;2023-12-20T12:25:53;7.00;96.60
26541;DHT22;14206;50.202;10.948;2023-12-20T12:28:26;6.90;96.60
26541;DHT22;14206;50.202;10.948;2023-12-20T12:30:58;6.80;96.60
26541;DHT22;14206;50.202;10.948;2023-12-20T12:33:26;6.70;96.60
26541;DHT22;14206;50.202;10.948;2023-12-20T12:35:54;6.60;96.60
26541;DHT22;14206;50.202;10.948;2023-12-20T12:38:21;6.50;96.60
26541;DHT22;14206;50.202;10.948;2023-12-20T12:40:54;6.50;96.60
26541;DHT22;14206;50.202;10.948;2023-12-20T12:43:21;6.60;96.60
26541;DHT22;14206;50.202;10.948;2023-12-20T12:45:49;6.70;96.60
26541;DHT22;14206;50.202;10.948;2023-12-20T12:48:16;6.80;96.60
26541;DHT22;14206;50.202;10.948;2023-12-20T12:50:44;6.80;96.60
26541;DHT22;14206;50.202;10.948;2023-12-20T12:53:11;6.80;96.60
26541;DHT22;14206;50.202;10.948;2023-12-20T12:55:38;6.80;96.60
26541;DHT22;14206;50.202;10.948;2023-12-20T12:58:05;6.80;96.60
26541;DHT22;14206;50.202;10.948;2023-12-20T13:00:32;6.70;96.60
26541;DHT22;14206;50.202;10.948;2023-12-20T13:03:00;6.70;96.60
26541;DHT22;14206;50.202;10.948;2023-12-20T13:05:28;6.70;96.60
26541;DHT22;14206;50.202;10.948;2023-12-20T13:07:56;6.70;96.60
26541;DHT22;14206;50.202;10.948;2023-12-20T13:10:24;6.70;96.60
26541;DHT22;14206;50.202;10.948;2023-12-20T13:12:52;6.70;96.60
26541;DHT22;14206;50.202;10.948;2023-12-20T13:15:20;6.70;96.60
26541;DHT22;14206;50.202;10.948;2023-12-20T13:17:49;6.70;96.60
26541;DHT22;14206;50.202;10.948;2023-12-20T13:20:17;6.70;96.60
26541;DHT22;14206;50.202;10.948;2023-12-20T13:22:49;6.70;96.60
26541;DHT22;14206;50.202;10.948;2023-12-20T13:25:21;6.70;96.60
26541;DHT22;14206;50.202;10.948;2023-12-20T13:27:48;6.80;96.60
26541;DHT22;14206;50.202;10.948;2023-12-20T13:30:16;6.80;96.60
26541;DHT22;14206;50.202;10.948;2023-12-20T13:32:45;6.80;96.60
26541;DHT22;14206;50.202;10.948;2023-12-20T13:35:12;6.80;96.60
26541;DHT22;14206;50.202;10.948;2023-12-20T13:37:39;6.80;96.60
26541;DHT22;14206;50.202;10.948;2023-12-20T13:40:07;6.80;96.60
26541;DHT22;14206;50.202;10.948;2023-12-20T13:42:34;6.80;96.60
26541;DHT22;14206;50.202;10.948;2023-12-20T13:45:01;6.80;96.60
26541;DHT22;14206;50.202;10.948;2023-12-20T13:47:28;6.80;96.60
26541;DHT22;14206;50.202;10.948;2023-12-20T13:49:56;6.80;96.60
26541;DHT22;14206;50.202;10.948;2023-12-20T13:52:23;6.70;96.60
26541;DHT22;14206;50.202;10.948;2023-12-20T13:54:50;6.70;96.60
26541;DHT22;14206;50.202;10.948;2023-12-20T13:57:17;6.70;96.60
26541;DHT22;14206;50.202;10.948;2023-12-20T14:00:05;6.60;96.60
26541;DHT22;14206;50.202;10.948;2023-12-20T14:02:32;6.60;96.60
26541;DHT22;14206;50.202;10.948;2023-12-20T14:04:59;6.60;96.60
26541;DHT22;14206;50.202;10.948;2023-12-20T14:07:27;6.50;96.60
26541;DHT22;14206;50.202;10.948;2023-12-20T14:09:56;6.60;96.60
26541;DHT22;14206;50.202;10.948;2023-12-20T14:12:23;6.60;96.60
26541;DHT22;14206;50.202;10.948;2023-12-20T14:14:50;6.50;96.60
26541;DHT22;14206;50.202;10.948;2023-12-20T14:17:17;6.50;96.60
26541;DHT22;14206;50.202;10.948;2023-12-20T14:19:44;6.40;96.60
26541;DHT22;14206;50.202;10.948;2023-12-20T14:22:11;6.40;96.60
26541;DHT22;14206;50.202;10.948;2023-12-20T14:24:38;6.40;96.60
26541;DHT22;14206;50.202;10.948;2023-12-20T14:27:05;6.40;96.60
26541;DHT22;14206;50.202;10.948;2023-12-20T14:29:32;6.40;96.60
26541;DHT22;14206;50.202;10.948;2023-12-20T14:37:51;6.40;96.60
26541;DHT22;14206;50.202;10.948;2023-12-20T14:40:18;6.40;96.60
26541;DHT22;14206;50.202;10.948;2023-12-20T14:42:45;6.40;96.60
26541;DHT22;14206;50.202;10.948;2023-12-20T14:45:13;6.40;96.60
26541;DHT22;14206;50.202;10.948;2023-12-20T14:47:40;6.40;96.60
26541;DHT22;14206;50.202;10.948;2023-12-20T14:50:08;6.40;96.60
26541;DHT22;14206;50.202;10.948;2023-12-20T14:52:35;6.40;96.60
26541;DHT22;14206;50.202;10.948;2023-12-20T14:55:03;6.40;96.60
26541;DHT22;14206;50.202;10.948;2023-12-20T14:57:30;6.40;96.60
26541;DHT22;14206;50.202;10.948;2023-12-20T14:59:57;6.50;96.60
26541;DHT22;14206;50.202;10.948;2023-12-20T15:02:24;6.40;96.60
26541;DHT22;14206;50.202;10.948;2023-12-20T15:04:51;6.40;96.60
26541;DHT22;14206;50.202;10.948;2023-12-20T15:07:19;6.40;96.60
26541;DHT22;14206;50.202;10.948;2023-12-20T15:09:46;6.40;96.60
26541;DHT22;14206;50.202;10.948;2023-12-20T15:12:14;6.40;96.30
26541;DHT22;14206;50.202;10.948;2023-12-20T15:14:41;6.40;96.30
26541;DHT22;14206;50.202;10.948;2023-12-20T15:17:08;6.40;96.30
26541;DHT22;14206;50.202;10.948;2023-12-20T15:19:35;6.40;95.90
26541;DHT22;14206;50.202;10.948;2023-12-20T15:22:03;6.40;96.10
26541;DHT22;14206;50.202;10.948;2023-12-20T15:24:30;6.40;95.90
26541;DHT22;14206;50.202;10.948;2023-12-20T15:27:05;6.40;95.60
26541;DHT22;14206;50.202;10.948;2023-12-20T15:29:33;6.40;95.90
26541;DHT22;14206;50.202;10.948;2023-12-20T15:32:00;6.40;96.10
26541;DHT22;14206;50.202;10.948;2023-12-20T15:34:27;6.40;96.00
26541;DHT22;14206;50.202;10.948;2023-12-20T15:36:54;6.40;95.60
26541;DHT22;14206;50.202;10.948;2023-12-20T15:39:22;6.40;95.60
26541;DHT22;14206;50.202;10.948;2023-12-20T15:41:49;6.40;95.90
26541;DHT22;14206;50.202;10.948;2023-12-20T15:44:16;6.30;96.10
26541;DHT22;14206;50.202;10.948;2023-12-20T15:46:43;6.30;96.20
26541;DHT22;14206;50.202;10.948;2023-12-20T15:49:10;6.30;96.20